Time;durP1;ratioP1;P1;durP2;ratioP2;P2;SDS_P1;SDS_P2;PMS_P1;PMS_P2;Temp;Humidity;BMP_temperature;BMP_pressure;BME280_temperature;BME280_humidity;BME280_pressure;Samples;Min_cycle;Max_cycle;Signal;HPM_P1;HPM_P2
2022/11/24 03:02:39;;;;;;;12.53;11.70;;;5.40;99.90;;;;;;4991327;23;20327;-80
2022/11/24 03:05:06;;;;;;;12.80;12.10;;;5.40;99.90;;;;;;4904349;29;20205;-80
2022/11/24 03:07:33;;;;;;;13.00;12.20;;;5.40;99.90;;;;;;4906773;29;20199;-80
2022/11/24 03:10:00;;;;;;;12.47;11.77;;;5.40;99.90;;;;;;4903972;29;20228;-80
2022/11/24 03:12:27;;;;;;;12.93;12.23;;;5.30;99.90;;;;;;4905399;29;20237;-80
2022/11/24 03:14:54;;;;;;;12.57;11.87;;;5.30;99.90;;;;;;4905637;29;20197;-80
2022/11/24 03:17:21;;;;;;;12.97;12.27;;;5.40;99.90;;;;;;4901775;29;20292;-80
2022/11/24 03:19:49;;;;;;;13.47;12.60;;;5.30;99.90;;;;;;4907159;29;20208;-80
2022/11/24 03:22:16;;;;;;;12.80;12.07;;;5.30;99.90;;;;;;4904008;29;20221;-80
2022/11/24 03:24:43;;;;;;;13.20;12.50;;;5.30;99.90;;;;;;4909605;29;20601;-80
2022/11/24 03:27:10;;;;;;;13.40;12.70;;;5.30;99.90;;;;;;4905165;29;20581;-80
2022/11/24 03:29:37;;;;;;;12.77;12.07;;;5.30;99.90;;;;;;4905618;29;20205;-80
2022/11/24 03:32:04;;;;;;;12.47;11.77;;;5.30;99.90;;;;;;4903725;29;20227;-81
2022/11/24 03:34:31;;;;;;;12.63;11.83;;;5.20;99.90;;;;;;4904010;29;20205;-80
2022/11/24 03:36:59;;;;;;;13.30;12.40;;;5.10;99.90;;;;;;4903422;29;20211;-80
2022/11/24 03:39:26;;;;;;;12.90;12.10;;;5.20;99.90;;;;;;4901348;29;20255;-80
2022/11/24 03:41:53;;;;;;;13.50;12.80;;;5.10;99.90;;;;;;4902378;29;20218;-79
2022/11/24 03:44:20;;;;;;;12.90;12.20;;;5.10;99.90;;;;;;4904825;29;20204;-80
2022/11/24 03:46:46;;;;;;;13.30;12.40;;;5.00;99.90;;;;;;4904994;29;20208;-79
2022/11/24 03:49:13;;;;;;;12.90;12.20;;;5.00;99.90;;;;;;4903950;29;20208;-80
2022/11/24 03:51:40;;;;;;;12.87;12.10;;;5.00;99.90;;;;;;4903215;29;20721;-78
2022/11/24 03:54:09;;;;;;;12.77;12.07;;;5.00;99.90;;;;;;4907813;29;20215;-77
2022/11/24 03:56:36;;;;;;;12.87;12.17;;;4.90;99.90;;;;;;4896856;29;20204;-78
2022/11/24 03:59:03;;;;;;;13.57;12.87;;;4.90;99.90;;;;;;4894507;29;20225;-77
2022/11/24 04:01:30;;;;;;;13.87;13.07;;;4.90;99.90;;;;;;4898882;29;20655;-77
2022/11/24 04:03:56;;;;;;;13.43;12.63;;;4.90;99.90;;;;;;4900817;29;20256;-78
2022/11/24 04:06:24;;;;;;;13.33;12.60;;;4.80;99.90;;;;;;4911484;29;20197;-79
2022/11/24 04:08:51;;;;;;;13.90;13.00;;;4.80;99.90;;;;;;4910096;29;20200;-78
2022/11/24 04:14:03;;;;;;;14.07;13.27;;;4.80;99.90;;;;;;4899220;29;20575;-78
2022/11/24 04:16:30;;;;;;;14.50;13.60;;;4.80;99.90;;;;;;4901075;29;20197;-78
2022/11/24 04:18:57;;;;;;;14.30;13.33;;;4.80;99.90;;;;;;4918332;29;20260;-78
2022/11/24 04:21:24;;;;;;;14.00;13.17;;;4.90;99.90;;;;;;4908448;29;20228;-79
2022/11/24 04:23:50;;;;;;;15.13;13.97;;;4.80;99.90;;;;;;4903641;29;20223;-80
2022/11/24 04:26:18;;;;;;;14.80;13.87;;;4.90;99.90;;;;;;4902355;29;20221;-80
2022/11/24 04:28:45;;;;;;;13.90;13.10;;;4.90;99.90;;;;;;4908053;29;20189;-80
2022/11/24 04:31:12;;;;;;;13.77;12.97;;;4.90;99.90;;;;;;4912784;29;20232;-79
2022/11/24 04:33:39;;;;;;;13.77;12.87;;;4.90;99.90;;;;;;4905429;29;20201;-81
2022/11/24 04:36:06;;;;;;;13.87;13.00;;;4.90;99.90;;;;;;4902255;29;20220;-81
2022/11/24 04:38:33;;;;;;;14.03;13.13;;;5.00;99.90;;;;;;4911620;29;20637;-80
2022/11/24 04:41:02;;;;;;;13.57;12.70;;;5.00;99.90;;;;;;4903537;29;20264;-79
2022/11/24 04:43:30;;;;;;;13.50;12.70;;;5.00;99.90;;;;;;4899194;29;20201;-79
2022/11/24 04:46:00;;;;;;;13.63;12.73;;;5.00;99.90;;;;;;4907955;29;20572;-79
2022/11/24 04:48:27;;;;;;;13.90;13.00;;;5.00;99.90;;;;;;4908050;29;20194;-79
2022/11/24 04:50:54;;;;;;;14.80;13.90;;;5.00;99.90;;;;;;4904927;29;20215;-79
2022/11/24 04:53:21;;;;;;;13.60;12.70;;;5.00;99.90;;;;;;4906889;29;20204;-79
2022/11/24 04:55:49;;;;;;;14.00;13.03;;;5.10;99.90;;;;;;4905538;29;20699;-79
2022/11/24 04:58:16;;;;;;;13.97;13.07;;;5.20;99.90;;;;;;4903996;29;20282;-80
2022/11/24 05:00:44;;;;;;;14.40;13.47;;;5.30;99.90;;;;;;4905281;29;20205;-79
2022/11/24 05:03:11;;;;;;;14.40;13.40;;;5.40;99.90;;;;;;4908109;29;20741;-79
2022/11/24 05:05:38;;;;;;;14.10;13.10;;;5.40;99.90;;;;;;4906457;29;20296;-79
2022/11/24 05:08:05;;;;;;;14.10;13.20;;;5.40;99.90;;;;;;4906879;29;20608;-79
2022/11/24 05:10:38;;;;;;;14.67;13.57;;;5.40;99.90;;;;;;4907178;29;20201;-79
2022/11/24 05:13:07;;;;;;;13.87;13.07;;;5.40;99.90;;;;;;4902387;29;20210;-80
2022/11/24 05:15:34;;;;;;;14.37;13.57;;;5.30;99.90;;;;;;4911117;29;20196;-80
2022/11/24 05:18:05;;;;;;;14.17;13.27;;;5.30;99.90;;;;;;4903488;29;20623;-80
2022/11/24 05:20:32;;;;;;;13.77;12.87;;;5.30;99.90;;;;;;4905789;29;20224;-79
2022/11/24 05:23:02;;;;;;;13.60;12.90;;;5.20;99.90;;;;;;4905497;29;20677;-80
2022/11/24 05:25:29;;;;;;;14.00;13.20;;;5.20;99.90;;;;;;4903931;29;20228;-80
2022/11/24 05:28:00;;;;;;;14.47;13.60;;;5.10;99.90;;;;;;4904073;29;20203;-80
2022/11/24 05:30:27;;;;;;;14.50;13.60;;;5.10;99.90;;;;;;4901916;29;20684;-79
2022/11/24 05:32:53;;;;;;;13.83;13.00;;;5.10;99.90;;;;;;4902123;29;20573;-80
2022/11/24 05:35:22;;;;;;;14.50;13.60;;;5.10;99.90;;;;;;4907478;29;20208;-80
2022/11/24 05:37:49;;;;;;;14.47;13.60;;;5.10;99.90;;;;;;4906374;29;20322;-80
2022/11/24 05:40:17;;;;;;;14.10;13.30;;;5.10;99.90;;;;;;4907707;29;20759;-81
2022/11/24 05:42:44;;;;;;;14.67;13.67;;;5.10;99.90;;;;;;4906309;29;20224;-80
2022/11/24 05:45:13;;;;;;;14.77;13.70;;;5.20;99.90;;;;;;4907179;29;20676;-80
2022/11/24 05:47:41;;;;;;;14.73;13.63;;;5.20;99.90;;;;;;4903173;29;20211;-80
2022/11/24 05:50:10;;;;;;;15.47;14.13;;;5.20;99.90;;;;;;4902028;29;20208;-80
2022/11/24 05:52:38;;;;;;;14.90;13.80;;;5.20;99.90;;;;;;4909010;29;20229;-80
2022/11/24 05:55:06;;;;;;;14.60;13.70;;;5.30;99.90;;;;;;4904803;29;20244;-80
2022/11/24 05:57:33;;;;;;;14.80;13.60;;;5.30;99.90;;;;;;4907209;29;20197;-80
2022/11/24 06:00:00;;;;;;;14.93;13.70;;;5.30;99.90;;;;;;4907016;29;20621;-80
2022/11/24 06:02:27;;;;;;;15.50;14.10;;;5.30;99.90;;;;;;4906505;29;20649;-80
2022/11/24 06:04:54;;;;;;;14.80;13.80;;;5.20;99.90;;;;;;4905708;29;20199;-80
2022/11/24 06:07:21;;;;;;;14.70;13.67;;;5.30;99.90;;;;;;4903072;29;20209;-80
2022/11/24 06:09:49;;;;;;;15.23;14.00;;;5.30;99.90;;;;;;4902331;29;20726;-80
2022/11/24 06:12:16;;;;;;;15.23;14.13;;;5.30;99.90;;;;;;4907136;29;20773;-80
2022/11/24 06:14:43;;;;;;;15.23;14.30;;;5.30;99.90;;;;;;4908812;29;20200;-80
2022/11/24 06:17:10;;;;;;;15.33;14.23;;;5.30;99.90;;;;;;4907020;29;20615;-79
2022/11/24 06:19:37;;;;;;;14.90;13.80;;;5.30;99.90;;;;;;4907412;29;20649;-79
2022/11/24 06:22:04;;;;;;;14.77;13.70;;;5.30;99.90;;;;;;4904477;29;20223;-80
2022/11/24 06:24:31;;;;;;;15.43;14.07;;;5.30;99.90;;;;;;4902178;29;20232;-81
2022/11/24 06:26:59;;;;;;;15.87;14.53;;;5.30;99.90;;;;;;4910349;29;20211;-81
2022/11/24 06:29:27;;;;;;;15.33;14.03;;;5.20;99.90;;;;;;4911027;29;20204;-81
2022/11/24 06:31:53;;;;;;;14.83;13.70;;;5.30;99.90;;;;;;4906351;29;20231;-80
2022/11/24 06:34:20;;;;;;;15.70;14.50;;;5.30;99.90;;;;;;4908472;29;20204;-80
2022/11/24 06:36:47;;;;;;;15.93;14.77;;;5.30;99.90;;;;;;4911110;29;20220;-80
2022/11/24 06:39:14;;;;;;;15.93;14.67;;;5.30;99.90;;;;;;4911678;29;20228;-80
2022/11/24 06:41:41;;;;;;;17.10;15.80;;;5.30;99.90;;;;;;4905425;29;20239;-79
2022/11/24 06:44:09;;;;;;;16.53;15.17;;;5.40;99.90;;;;;;4912322;29;20239;-80
2022/11/24 06:46:36;;;;;;;15.97;14.67;;;5.40;99.90;;;;;;4904205;29;20196;-80
2022/11/24 06:49:03;;;;;;;16.13;14.90;;;5.50;99.90;;;;;;4905665;29;20200;-80
2022/11/24 06:51:30;;;;;;;16.00;14.70;;;5.50;99.90;;;;;;4901479;29;20235;-79
2022/11/24 06:53:56;;;;;;;17.00;15.80;;;5.60;99.90;;;;;;4902205;29;20209;-79
2022/11/24 06:56:23;;;;;;;15.17;13.97;;;5.70;99.90;;;;;;4907286;29;20201;-79
2022/11/24 06:58:52;;;;;;;15.13;14.13;;;5.80;99.90;;;;;;4903609;29;20235;-80
2022/11/24 07:01:22;;;;;;;15.40;14.10;;;5.90;99.90;;;;;;4899773;29;20232;-80
2022/11/24 07:03:50;;;;;;;15.33;14.07;;;5.90;99.90;;;;;;4908757;29;20204;-80
2022/11/24 07:06:18;;;;;;;15.33;14.10;;;6.00;99.90;;;;;;4902158;29;20213;-79
2022/11/24 07:08:45;;;;;;;15.53;14.00;;;6.00;99.90;;;;;;4905194;29;20209;-80
2022/11/24 07:11:14;;;;;;;16.30;14.90;;;6.00;99.90;;;;;;4905004;29;20225;-79
2022/11/24 07:13:42;;;;;;;15.30;14.20;;;6.00;99.90;;;;;;4905557;29;20198;-80
2022/11/24 07:16:13;;;;;;;14.93;13.80;;;6.10;99.90;;;;;;4904164;29;20206;-79
2022/11/24 07:18:42;;;;;;;14.80;13.50;;;6.10;99.90;;;;;;4901927;29;20227;-79
2022/11/24 07:21:09;;;;;;;13.27;12.20;;;6.10;99.90;;;;;;4906728;29;20230;-80
2022/11/24 07:23:36;;;;;;;13.20;12.10;;;6.20;99.90;;;;;;4901398;29;20209;-80
2022/11/24 07:26:04;;;;;;;13.10;12.00;;;6.20;99.90;;;;;;4902305;29;20202;-79
2022/11/24 07:28:31;;;;;;;12.70;11.67;;;6.20;99.90;;;;;;4905609;29;20667;-79
2022/11/24 07:30:58;;;;;;;12.53;11.33;;;6.30;99.90;;;;;;4904629;29;20214;-79
2022/11/24 07:33:25;;;;;;;12.23;11.37;;;6.30;99.90;;;;;;4904272;29;20203;-79
2022/11/24 07:35:54;;;;;;;13.37;12.30;;;6.40;99.90;;;;;;4907326;29;20227;-79
2022/11/24 07:38:21;;;;;;;12.60;11.70;;;6.40;99.90;;;;;;4906958;29;20298;-79
2022/11/24 07:40:48;;;;;;;12.70;11.80;;;6.40;99.90;;;;;;4910425;29;20225;-78
2022/11/24 07:43:15;;;;;;;13.00;12.10;;;6.40;99.90;;;;;;4909688;29;20202;-78
2022/11/24 07:45:43;;;;;;;13.37;12.47;;;6.50;99.90;;;;;;4904081;29;20611;-78
2022/11/24 07:48:10;;;;;;;13.30;12.33;;;6.50;99.90;;;;;;4905217;29;20205;-78
2022/11/24 07:50:37;;;;;;;13.70;12.70;;;6.50;99.90;;;;;;4905691;29;20206;-78
2022/11/24 07:53:05;;;;;;;13.30;12.13;;;6.50;99.90;;;;;;4909756;29;20209;-78
2022/11/24 07:55:32;;;;;;;13.07;12.13;;;6.50;99.90;;;;;;4907724;29;20207;-78
2022/11/24 07:58:00;;;;;;;12.30;11.50;;;6.60;99.90;;;;;;4906769;29;20205;-80
2022/11/24 08:00:27;;;;;;;13.43;12.33;;;6.70;99.90;;;;;;4894421;29;20257;-79
2022/11/24 08:02:55;;;;;;;13.53;12.27;;;6.70;99.90;;;;;;4909557;29;20212;-79
2022/11/24 08:05:22;;;;;;;12.77;11.90;;;6.80;99.90;;;;;;4908989;29;20236;-80
2022/11/24 08:07:48;;;;;;;13.37;12.47;;;6.90;99.90;;;;;;4926890;29;20207;-79
2022/11/24 08:10:17;;;;;;;13.17;11.97;;;6.90;99.90;;;;;;4903787;29;20203;-79
2022/11/24 08:12:44;;;;;;;13.07;12.07;;;7.00;99.90;;;;;;4910982;29;20219;-80
2022/11/24 08:15:11;;;;;;;13.37;12.30;;;7.00;99.90;;;;;;4898145;29;20620;-79
2022/11/24 08:17:38;;;;;;;13.23;12.13;;;7.10;99.90;;;;;;4908450;29;20265;-79
2022/11/24 08:20:06;;;;;;;14.30;13.00;;;7.20;99.90;;;;;;4907745;29;20220;-80
2022/11/24 08:22:33;;;;;;;13.87;12.60;;;7.30;99.90;;;;;;4910934;29;20246;-80
2022/11/24 08:25:00;;;;;;;14.50;12.70;;;7.30;99.90;;;;;;4909669;29;20579;-80
2022/11/24 08:27:29;;;;;;;13.03;12.20;;;7.30;99.90;;;;;;4913877;29;20208;-79
2022/11/24 08:29:56;;;;;;;14.20;13.20;;;7.30;99.90;;;;;;4906185;29;20206;-79
2022/11/24 08:32:23;;;;;;;13.60;12.47;;;7.30;99.90;;;;;;4908114;29;20238;-79
2022/11/24 08:34:50;;;;;;;13.37;12.30;;;7.30;99.90;;;;;;4905481;29;20200;-80
2022/11/24 08:37:17;;;;;;;12.77;11.83;;;7.30;99.90;;;;;;4908267;29;20263;-80
2022/11/24 08:39:44;;;;;;;13.57;12.43;;;7.30;99.90;;;;;;4909280;29;20281;-79
2022/11/24 08:42:12;;;;;;;13.80;12.57;;;7.30;99.90;;;;;;4910362;29;20665;-80
2022/11/24 08:44:40;;;;;;;12.57;11.50;;;7.20;99.90;;;;;;4907894;29;20573;-79
2022/11/24 08:47:07;;;;;;;13.03;11.93;;;7.30;99.90;;;;;;4908335;29;20211;-79
2022/11/24 08:49:34;;;;;;;13.90;12.80;;;7.30;99.90;;;;;;4910955;29;20199;-79
2022/11/24 08:52:01;;;;;;;13.70;12.37;;;7.30;99.90;;;;;;4908414;29;20660;-80
2022/11/24 08:54:28;;;;;;;12.70;11.80;;;7.30;99.90;;;;;;4910142;29;20270;-79
2022/11/24 08:56:55;;;;;;;12.90;12.00;;;7.40;99.90;;;;;;4908474;29;20209;-80
2022/11/24 08:59:21;;;;;;;11.70;10.70;;;7.40;99.90;;;;;;4909429;29;20224;-79
2022/11/24 09:01:50;;;;;;;12.07;11.20;;;7.50;99.90;;;;;;4907813;29;20310;-79
2022/11/24 09:04:16;;;;;;;13.33;11.97;;;7.50;99.90;;;;;;4905682;29;20212;-79
2022/11/24 09:06:43;;;;;;;12.93;11.80;;;7.60;99.90;;;;;;4909107;29;20215;-79
2022/11/24 09:09:10;;;;;;;13.17;12.27;;;7.70;99.90;;;;;;4905769;29;20248;-79
2022/11/24 09:11:37;;;;;;;14.70;13.30;;;7.90;99.90;;;;;;4908456;29;20310;-79
2022/11/24 09:14:04;;;;;;;13.43;12.40;;;8.10;99.90;;;;;;4908476;29;20211;-80
2022/11/24 09:16:31;;;;;;;13.17;12.17;;;8.30;99.90;;;;;;4916843;29;20668;-80
2022/11/24 09:19:01;;;;;;;13.03;12.03;;;8.40;99.90;;;;;;4908778;29;20631;-79
2022/11/24 09:21:29;;;;;;;14.30;13.20;;;8.50;99.90;;;;;;4903603;29;20918;-80
2022/11/24 09:23:56;;;;;;;14.23;13.23;;;8.60;99.90;;;;;;4912878;29;20199;-79
2022/11/24 09:26:26;;;;;;;13.57;12.40;;;8.60;99.90;;;;;;4905755;29;20342;-79
2022/11/24 09:28:54;;;;;;;12.40;11.60;;;8.60;99.90;;;;;;4911569;29;20595;-79
2022/11/24 09:31:23;;;;;;;13.10;12.10;;;8.70;99.90;;;;;;4908499;29;20279;-79
2022/11/24 09:33:50;;;;;;;13.70;12.70;;;8.80;99.90;;;;;;4906126;29;20200;-79
2022/11/24 09:36:18;;;;;;;12.50;11.60;;;8.70;99.90;;;;;;4912882;29;20208;-79
2022/11/24 09:38:46;;;;;;;12.50;11.80;;;8.70;99.90;;;;;;4905032;29;20249;-80
2022/11/24 09:41:38;;;;;;;13.90;12.67;;;8.60;99.90;;;;;;4906437;29;20224;-79
2022/11/24 09:44:14;;;;;;;13.00;12.00;;;8.50;99.90;;;;;;4906333;29;20309;-79
2022/11/24 09:46:53;;;;;;;12.30;11.50;;;8.50;99.90;;;;;;4908406;29;20215;-79
2022/11/24 09:49:30;;;;;;;12.47;11.63;;;8.60;99.90;;;;;;4907304;29;20672;-79
2022/11/24 09:52:03;;;;;;;12.20;11.30;;;8.60;99.90;;;;;;4912030;29;20243;-80
2022/11/24 09:54:31;;;;;;;12.87;11.83;;;8.70;99.90;;;;;;4901185;29;20204;-79
2022/11/24 09:57:01;;;;;;;12.00;11.20;;;8.70;99.90;;;;;;4906266;29;20208;-79
2022/11/24 09:59:28;;;;;;;13.00;12.10;;;8.90;99.90;;;;;;4899547;29;20216;-78
2022/11/24 10:01:55;;;;;;;5.33;4.83;;;9.00;99.90;;;;;;4905980;29;20279;-80
2022/11/24 10:04:27;;;;;;;7.77;7.17;;;9.10;99.90;;;;;;4909072;29;20687;-80
2022/11/24 10:07:06;;;;;;;4.50;4.07;;;9.20;99.90;;;;;;4908038;29;20224;-79
2022/11/24 10:09:57;;;;;;;4.37;3.17;;;9.30;99.90;;;;;;4897732;29;20535;-79
2022/11/24 10:12:38;;;;;;;5.63;5.23;;;9.30;99.90;;;;;;4907798;29;20322;-80
2022/11/24 10:15:29;;;;;;;7.97;7.47;;;9.30;99.90;;;;;;4908507;29;20744;-80
2022/11/24 10:18:34;;;;;;;3.93;2.70;;;9.40;99.90;;;;;;4906528;29;20193;-80
2022/11/24 10:21:13;;;;;;;2.80;2.60;;;9.40;99.90;;;;;;4893188;29;20240;-81
2022/11/24 10:24:13;;;;;;;2.97;2.77;;;9.30;99.90;;;;;;4910899;29;20267;-80
2022/11/24 10:26:50;;;;;;;3.30;2.90;;;9.40;99.90;;;;;;4901371;29;20580;-79
2022/11/24 10:29:24;;;;;;;3.00;2.80;;;9.30;99.90;;;;;;4900495;29;20205;-79
2022/11/24 10:31:54;;;;;;;3.23;2.80;;;9.30;99.90;;;;;;4908747;29;20223;-80
2022/11/24 10:34:28;;;;;;;2.77;2.57;;;9.40;99.90;;;;;;4908742;29;20888;-80
2022/11/24 10:37:02;;;;;;;4.63;4.30;;;9.40;99.90;;;;;;4908904;29;20204;-80
2022/11/24 10:39:35;;;;;;;8.23;7.73;;;9.40;99.90;;;;;;4907542;29;21003;-80
2022/11/24 10:42:11;;;;;;;10.20;9.60;;;9.40;99.90;;;;;;4907768;29;20459;-79
2022/11/24 10:44:40;;;;;;;4.40;4.10;;;9.40;99.90;;;;;;4908343;29;20203;-80
2022/11/24 10:47:17;;;;;;;6.50;6.10;;;9.60;99.90;;;;;;4907964;29;20204;-80
2022/11/24 10:49:51;;;;;;;11.57;10.87;;;9.80;99.90;;;;;;4893578;29;20192;-80
2022/11/24 10:52:18;;;;;;;4.93;3.57;;;10.00;99.90;;;;;;4905552;29;20709;-80
2022/11/24 10:54:58;;;;;;;9.47;8.90;;;10.20;99.90;;;;;;4908389;29;20594;-80
2022/11/24 10:57:31;;;;;;;10.07;9.27;;;10.20;99.90;;;;;;4906054;29;20197;-80
2022/11/24 10:59:58;;;;;;;8.00;7.40;;;10.10;99.90;;;;;;4912074;29;20227;-80
2022/11/24 11:02:37;;;;;;;7.40;6.77;;;10.00;99.90;;;;;;4905334;29;20232;-79
2022/11/24 11:05:27;;;;;;;11.10;10.30;;;9.80;99.90;;;;;;4906450;29;20201;-79
2022/11/24 11:08:29;;;;;;;11.00;10.40;;;9.70;99.90;;;;;;4908313;29;20296;-80
2022/11/24 11:11:14;;;;;;;10.60;10.00;;;9.60;99.90;;;;;;4907351;29;20224;-79
2022/11/24 11:13:50;;;;;;;11.00;10.30;;;9.80;99.90;;;;;;4904735;29;20283;-79
2022/11/24 11:16:25;;;;;;;11.00;10.30;;;10.00;99.90;;;;;;4899632;29;20237;-80
2022/11/24 11:18:53;;;;;;;10.80;10.13;;;10.10;99.90;;;;;;4906982;29;20458;-80
2022/11/24 11:21:31;;;;;;;3.87;3.57;;;10.10;99.90;;;;;;4907505;29;20236;-80
2022/11/24 11:23:59;;;;;;;8.30;7.70;;;10.10;99.90;;;;;;4909533;29;20691;-79
2022/11/24 11:26:35;;;;;;;11.20;10.50;;;10.20;99.90;;;;;;4905567;29;20317;-80
2022/11/24 11:29:12;;;;;;;7.67;7.10;;;10.20;99.90;;;;;;4911461;29;20199;-79
2022/11/24 11:31:40;;;;;;;7.97;7.40;;;10.30;99.90;;;;;;4904329;29;20228;-80
2022/11/24 11:34:14;;;;;;;10.13;9.43;;;10.30;99.90;;;;;;4906251;29;20642;-80
2022/11/24 11:36:45;;;;;;;8.23;7.60;;;10.50;99.90;;;;;;4909380;29;20222;-80
2022/11/24 11:39:28;;;;;;;4.13;3.73;;;10.60;99.90;;;;;;4905897;29;20242;-79
2022/11/24 11:42:06;;;;;;;10.93;10.13;;;10.70;99.90;;;;;;4911219;29;20215;-80
2022/11/24 11:44:37;;;;;;;9.67;8.97;;;10.80;99.90;;;;;;4901162;29;20740;-80
2022/11/24 11:47:16;;;;;;;5.57;4.50;;;10.80;99.90;;;;;;4904893;29;20214;-80
2022/11/24 11:49:44;;;;;;;11.00;6.73;;;10.80;99.90;;;;;;4910661;29;20190;-80
2022/11/24 11:52:44;;;;;;;7.67;7.13;;;10.80;99.90;;;;;;4902444;29;20610;-80
2022/11/24 11:55:41;;;;;;;6.23;5.00;;;10.90;99.90;;;;;;4906854;29;20206;-80
2022/11/24 11:58:28;;;;;;;6.57;6.03;;;10.90;99.90;;;;;;4906189;29;20217;-80
2022/11/24 12:01:04;;;;;;;4.07;2.80;;;10.90;99.90;;;;;;4903753;29;20230;-79
2022/11/24 12:03:46;;;;;;;4.30;3.37;;;11.00;99.90;;;;;;4897351;29;20719;-80
2022/11/24 12:06:27;;;;;;;11.83;10.63;;;11.10;99.90;;;;;;4904928;29;20625;-79
2022/11/24 12:09:02;;;;;;;10.73;10.03;;;11.10;99.90;;;;;;4906807;29;20201;-80
2022/11/24 12:11:33;;;;;;;11.23;10.63;;;11.20;99.90;;;;;;4898681;29;20220;-80
2022/11/24 12:14:12;;;;;;;8.57;6.77;;;11.10;99.90;;;;;;4906739;29;20205;-80
2022/11/24 12:16:47;;;;;;;8.13;7.47;;;11.00;99.90;;;;;;4904192;29;20202;-79
2022/11/24 12:19:24;;;;;;;10.73;9.73;;;10.90;99.90;;;;;;4912035;29;20201;-80
2022/11/24 12:21:58;;;;;;;9.57;8.77;;;10.80;99.90;;;;;;4896452;29;20223;-80
2022/11/24 12:24:37;;;;;;;5.80;4.73;;;10.70;99.90;;;;;;4906938;29;20205;-80
2022/11/24 12:27:10;;;;;;;8.23;7.53;;;10.60;99.90;;;;;;4907300;29;20546;-80
2022/11/24 12:29:57;;;;;;;10.43;9.73;;;10.50;99.90;;;;;;4905887;29;20197;-80
2022/11/24 12:32:38;;;;;;;10.10;9.40;;;10.50;99.90;;;;;;4909378;29;20347;-80
2022/11/24 12:35:16;;;;;;;10.80;9.90;;;10.40;99.90;;;;;;4904239;29;20209;-80
2022/11/24 12:37:55;;;;;;;11.07;9.93;;;10.30;99.90;;;;;;4909983;29;20198;-80
2022/11/24 12:40:35;;;;;;;10.97;9.97;;;10.30;99.90;;;;;;4909512;29;20742;-80
2022/11/24 12:43:13;;;;;;;10.80;9.90;;;10.20;99.90;;;;;;4910601;29;20296;-79
2022/11/24 12:45:54;;;;;;;11.70;10.87;;;10.30;99.90;;;;;;4912187;29;20200;-80
2022/11/24 12:48:34;;;;;;;11.30;10.50;;;10.40;99.90;;;;;;4908700;29;20208;-80
2022/11/24 12:51:03;;;;;;;11.40;10.60;;;10.40;99.90;;;;;;4914878;29;20220;-80
2022/11/24 12:53:33;;;;;;;12.47;11.53;;;10.40;99.90;;;;;;4928708;23;20228;-77
2022/11/24 12:56:09;;;;;;;10.97;10.27;;;10.40;99.90;;;;;;4929061;29;20215;-77
2022/11/24 12:58:44;;;;;;;11.27;10.50;;;10.40;99.90;;;;;;4926464;29;20207;-77
2022/11/24 13:01:22;;;;;;;11.27;10.30;;;10.50;99.90;;;;;;4923960;29;20219;-77
2022/11/24 13:04:04;;;;;;;11.60;10.67;;;10.60;99.90;;;;;;4915595;29;20228;-78
2022/11/24 13:06:39;;;;;;;11.40;10.20;;;10.80;99.90;;;;;;4895086;29;20546;-77
2022/11/24 13:09:08;;;;;;;13.10;12.10;;;10.80;99.90;;;;;;4913237;29;20685;-77
2022/11/24 13:11:41;;;;;;;12.30;11.40;;;10.90;99.90;;;;;;4908096;29;20300;-77
2022/11/24 13:14:15;;;;;;;11.20;10.40;;;10.80;99.90;;;;;;4908711;29;20234;-77
2022/11/24 13:16:52;;;;;;;11.00;10.20;;;10.70;99.90;;;;;;4905456;29;20662;-78
2022/11/24 13:19:21;;;;;;;10.80;9.93;;;10.70;99.90;;;;;;4912806;29;20218;-77
2022/11/24 13:22:03;;;;;;;7.83;6.23;;;10.70;99.90;;;;;;4907489;29;20232;-78
2022/11/24 13:24:32;;;;;;;10.10;9.17;;;10.70;99.90;;;;;;4918000;29;20224;-78
2022/11/24 13:27:40;;;;;;;11.00;10.30;;;10.60;99.90;;;;;;4909969;29;20214;-78
2022/11/24 13:30:49;;;;;;;11.37;10.43;;;10.60;99.90;;;;;;4906704;29;20204;-77
2022/11/24 13:33:35;;;;;;;11.83;10.93;;;10.60;99.90;;;;;;4912435;29;20204;-77
2022/11/24 13:36:32;;;;;;;10.87;9.97;;;10.70;99.90;;;;;;4889035;29;20494;-80
2022/11/24 13:39:54;;;;;;;10.90;10.00;;;10.70;99.90;;;;;;4904733;29;20201;-83
2022/11/24 13:43:16;;;;;;;10.57;9.77;;;10.80;99.90;;;;;;4909857;29;20210;-80
2022/11/24 13:49:37;;;;;;;10.37;9.47;;;11.00;99.90;;;;;;4905783;29;20766;-80
2022/11/24 13:52:43;;;;;;;10.47;9.77;;;11.10;99.90;;;;;;4906616;29;20589;-82
2022/11/24 13:55:50;;;;;;;10.90;9.93;;;11.20;99.90;;;;;;4912194;29;20713;-80
2022/11/24 13:59:13;;;;;;;10.57;9.67;;;11.20;99.90;;;;;;4908257;29;20194;-80
2022/11/24 14:02:23;;;;;;;10.60;9.80;;;11.10;99.90;;;;;;4890572;29;20222;-80
2022/11/24 14:06:01;;;;;;;10.10;9.40;;;11.10;99.90;;;;;;4911478;29;20229;-79
2022/11/24 14:08:38;;;;;;;10.77;9.90;;;10.90;99.90;;;;;;4897447;29;20209;-79
2022/11/24 14:11:13;;;;;;;10.27;9.40;;;10.90;99.90;;;;;;4913705;29;20596;-79
2022/11/24 14:13:40;;;;;;;10.43;9.63;;;10.90;99.90;;;;;;4910644;29;20237;-79
2022/11/24 14:16:16;;;;;;;10.40;9.70;;;10.80;99.90;;;;;;4900809;29;20665;-79
2022/11/24 14:18:44;;;;;;;11.00;10.10;;;10.70;99.90;;;;;;4912807;29;20205;-78
2022/11/24 14:21:30;;;;;;;10.57;9.77;;;10.60;99.90;;;;;;4900705;29;20701;-79
2022/11/24 14:24:12;;;;;;;11.10;10.30;;;10.60;99.90;;;;;;4913032;29;20603;-79
2022/11/24 14:26:40;;;;;;;10.73;9.70;;;10.50;99.90;;;;;;4910052;29;20200;-78
2022/11/24 14:29:15;;;;;;;10.77;9.80;;;10.50;99.90;;;;;;4913194;29;20613;-78
2022/11/24 14:31:42;;;;;;;10.67;9.97;;;10.50;99.90;;;;;;4902296;29;20192;-79
2022/11/24 14:34:20;;;;;;;10.80;10.00;;;10.40;99.90;;;;;;4903929;29;20235;-79
2022/11/24 14:36:47;;;;;;;10.30;9.60;;;10.40;99.90;;;;;;4906090;29;20215;-78
2022/11/24 14:39:17;;;;;;;10.80;9.90;;;10.40;99.90;;;;;;4915935;29;20237;-79
2022/11/24 14:41:51;;;;;;;10.80;10.10;;;10.30;99.90;;;;;;4907567;29;20592;-79
2022/11/24 14:44:22;;;;;;;11.23;10.33;;;10.30;99.90;;;;;;4909042;29;20228;-80
2022/11/24 14:46:50;;;;;;;10.90;10.10;;;10.20;99.90;;;;;;4910658;29;20207;-79
2022/11/24 14:49:20;;;;;;;11.13;10.33;;;10.10;99.90;;;;;;4908672;29;20200;-79
2022/11/24 14:51:53;;;;;;;11.20;10.40;;;10.00;99.90;;;;;;4903975;29;20205;-79
2022/11/24 14:54:23;;;;;;;5.57;4.43;;;9.80;99.90;;;;;;4910965;29;20231;-79
2022/11/24 14:56:59;;;;;;;6.37;4.63;;;9.70;99.90;;;;;;4902740;29;20586;-80
2022/11/24 14:59:27;;;;;;;6.50;5.90;;;9.50;99.90;;;;;;4898772;29;20230;-79
2022/11/24 15:01:55;;;;;;;3.50;2.90;;;9.40;99.90;;;;;;4911502;29;20231;-80
2022/11/24 15:04:24;;;;;;;8.40;7.73;;;9.30;99.90;;;;;;4908864;29;20322;-80
2022/11/24 15:07:02;;;;;;;7.60;6.97;;;9.20;99.90;;;;;;4912777;29;20665;-79
2022/11/24 15:09:34;;;;;;;5.47;5.07;;;9.10;99.90;;;;;;4902054;29;20208;-80
2022/11/24 15:12:06;;;;;;;8.20;7.40;;;9.00;99.90;;;;;;4910036;29;20214;-79
2022/11/24 15:14:45;;;;;;;9.70;8.80;;;8.90;99.90;;;;;;4905704;29;20228;-81
2022/11/24 15:17:17;;;;;;;11.50;10.50;;;8.80;99.90;;;;;;4911482;29;20227;-79
2022/11/24 15:19:47;;;;;;;11.57;10.80;;;8.70;99.90;;;;;;4894904;29;20257;-79
2022/11/24 15:22:33;;;;;;;11.20;10.40;;;8.60;99.90;;;;;;4904030;29;20231;-79
2022/11/24 15:25:02;;;;;;;11.30;10.60;;;8.50;99.90;;;;;;4906571;29;20576;-79
2022/11/24 15:27:29;;;;;;;11.07;10.23;;;8.50;99.90;;;;;;4901935;29;20203;-79
2022/11/24 15:29:56;;;;;;;10.90;10.20;;;8.40;99.90;;;;;;4904104;29;20340;-79
2022/11/24 15:32:23;;;;;;;10.70;10.10;;;8.30;99.90;;;;;;4913800;29;20196;-80
2022/11/24 15:34:50;;;;;;;10.40;9.70;;;8.20;99.90;;;;;;4906495;29;20224;-79
2022/11/24 15:37:17;;;;;;;11.40;10.60;;;8.10;99.90;;;;;;4913827;29;20204;-79
2022/11/24 15:39:44;;;;;;;11.53;10.83;;;8.00;99.90;;;;;;4908176;29;20212;-80
2022/11/24 15:42:13;;;;;;;12.00;11.20;;;8.00;99.90;;;;;;4914242;29;20278;-79
2022/11/24 15:44:40;;;;;;;11.70;10.90;;;7.90;99.90;;;;;;4907441;29;20219;-79
2022/11/24 15:47:08;;;;;;;11.53;10.83;;;7.80;99.90;;;;;;4907463;29;20210;-79
2022/11/24 15:49:35;;;;;;;12.83;11.93;;;7.70;99.90;;;;;;4904982;29;20211;-79
2022/11/24 15:52:02;;;;;;;11.60;10.90;;;7.70;99.90;;;;;;4910430;29;20228;-79
2022/11/24 15:54:29;;;;;;;11.60;10.80;;;7.60;99.90;;;;;;4905771;29;20230;-79
2022/11/24 15:56:55;;;;;;;11.90;11.10;;;7.50;99.90;;;;;;4910104;29;20236;-79
2022/11/24 15:59:24;;;;;;;12.27;11.37;;;7.50;99.90;;;;;;4906754;29;20211;-79
2022/11/24 16:01:51;;;;;;;12.73;11.83;;;7.40;99.90;;;;;;4910964;29;20238;-79
2022/11/24 16:04:17;;;;;;;12.83;11.63;;;7.30;99.90;;;;;;4901835;29;20719;-79
2022/11/24 16:06:44;;;;;;;12.93;12.03;;;7.20;99.90;;;;;;4911483;29;20665;-79
2022/11/24 16:09:16;;;;;;;13.50;12.50;;;7.10;99.90;;;;;;4909056;29;20212;-79
2022/11/24 16:11:43;;;;;;;12.17;11.27;;;7.00;99.90;;;;;;4915936;29;20196;-79